createdAt,value
2018-05-10T00:01:34.792Z,15.5
2018-05-10T00:07:05.185Z,15.5
2018-05-10T00:12:35.593Z,15.6
2018-05-10T00:18:05.927Z,15.6
2018-05-10T00:23:36.285Z,15.6
2018-05-10T00:29:05.632Z,15.6
2018-05-10T00:34:36.081Z,15.6
2018-05-10T00:40:06.393Z,15.5
2018-05-10T00:45:36.740Z,15.5
2018-05-10T00:51:06.131Z,15.5
2018-05-10T00:56:36.452Z,15.5
2018-05-10T01:02:05.822Z,15.4
2018-05-10T01:07:35.322Z,15.4
2018-05-10T01:13:04.443Z,15.3
2018-05-10T01:18:33.807Z,15.3
2018-05-10T01:24:04.304Z,15.3
2018-05-10T01:29:33.443Z,15.2
2018-05-10T01:35:03.804Z,15.2
2018-05-10T01:40:34.124Z,15.2
2018-05-10T01:51:34.940Z,15.1
2018-05-10T01:57:05.112Z,15.1
2018-05-10T02:02:35.502Z,15.1
2018-05-10T02:08:04.746Z,15.1
2018-05-10T02:13:34.063Z,15
2018-05-10T02:19:03.346Z,15
2018-05-10T02:24:33.629Z,15
2018-05-10T02:30:03.976Z,15
2018-05-10T02:35:34.358Z,15
2018-05-10T02:41:04.533Z,15
2018-05-10T02:46:33.824Z,14.9
2018-05-10T02:52:03.572Z,14.9
2018-05-10T02:57:32.868Z,14.8
2018-05-10T03:03:02.695Z,14.8
2018-05-10T03:08:32.019Z,14.7
2018-05-10T03:14:02.279Z,14.7
2018-05-10T03:19:31.477Z,14.6
2018-05-10T03:25:01.834Z,14.5
2018-05-10T03:30:30.949Z,14.4
2018-05-10T03:36:01.218Z,14.4
2018-05-10T03:41:30.442Z,14.3
2018-05-10T03:46:59.699Z,14.3
2018-05-10T03:52:29.874Z,14.2
2018-05-10T03:58:00.233Z,14.2
2018-05-10T04:03:29.303Z,14.2
2018-05-10T04:08:58.550Z,14.2
2018-05-10T04:14:27.770Z,14.1
2018-05-10T04:19:56.895Z,14.1
2018-05-10T04:25:27.741Z,14.1
2018-05-10T04:36:25.533Z,14.1
2018-05-10T04:41:56.026Z,14.2
2018-05-10T04:47:25.032Z,14.3
2018-05-10T04:52:54.268Z,14.4
2018-05-10T04:58:24.517Z,14.5
2018-05-10T05:03:54.735Z,14.6
2018-05-10T05:09:23.936Z,14.6
2018-05-10T05:14:54.205Z,14.6
2018-05-10T05:20:24.469Z,14.7
2018-05-10T05:25:54.715Z,14.8
2018-05-10T05:31:23.988Z,14.8
2018-05-10T05:36:53.269Z,14.9
2018-05-10T05:42:23.555Z,15
2018-05-10T05:47:53.853Z,15.1
2018-05-10T05:53:23.130Z,15.2
2018-05-10T05:58:52.428Z,15.3
2018-05-10T06:04:22.783Z,15.4
2018-05-10T06:09:53.083Z,15.4
2018-05-10T06:20:52.739Z,15.5
2018-05-10T06:26:22.068Z,15.6
2018-05-10T06:31:52.569Z,15.9
2018-05-10T06:37:22.830Z,16.4
2018-05-10T06:42:53.675Z,16.8
2018-05-10T06:48:23.787Z,17.1
2018-05-10T06:53:53.262Z,17.3
2018-05-10T06:59:22.791Z,17.4
2018-05-10T07:04:53.627Z,17.5
2018-05-10T07:10:23.943Z,17.6
2018-05-10T07:15:53.619Z,17.7
2018-05-10T07:21:24.216Z,17.9
2018-05-10T07:26:53.800Z,18
2018-05-10T07:32:23.346Z,18.2
2018-05-10T07:37:54.029Z,18.3
2018-05-10T07:43:23.616Z,18.4
2018-05-10T07:48:54.380Z,18.4
2018-05-10T07:54:24.155Z,18.3
2018-05-10T07:59:54.632Z,18.3
2018-05-10T08:05:25.289Z,18.2
2018-05-10T08:10:55.287Z,18.1
2018-05-10T08:16:24.540Z,18.1
2018-05-10T08:21:54.185Z,18.1
2018-05-10T08:27:23.840Z,18.2
2018-05-10T08:32:54.575Z,18.3
2018-05-10T08:38:25.118Z,18.4
2018-05-10T08:43:55.766Z,18.4
2018-05-10T08:49:26.464Z,18.3
2018-05-10T08:54:57.196Z,18.3
2018-05-10T09:00:26.737Z,18.3
2018-05-10T09:05:56.582Z,18.4
2018-05-10T09:11:27.213Z,18.5
2018-05-10T09:16:56.764Z,18.6
2018-05-10T09:22:26.533Z,18.7
2018-05-10T09:27:57.183Z,18.8
2018-05-10T09:33:26.870Z,19
2018-05-10T09:38:57.635Z,19.2
2018-05-10T09:44:28.345Z,19.3
2018-05-10T09:49:59.122Z,19.5
2018-05-10T09:55:29.104Z,19.9
2018-05-10T10:00:59.720Z,20.3
2018-05-10T10:06:29.481Z,20.4
2018-05-10T10:11:59.342Z,20.4
2018-05-10T10:17:30.154Z,20.5
2018-05-10T10:23:01.049Z,20.9
2018-05-10T10:28:32.169Z,21.2
2018-05-10T10:34:03.214Z,21.5
2018-05-10T10:39:33.824Z,21.6
2018-05-10T10:45:04.842Z,21.9
2018-05-10T10:50:35.833Z,22.2
2018-05-10T10:56:05.851Z,22.5
2018-05-10T11:01:36.288Z,22.7
2018-05-10T11:07:06.114Z,22.8
2018-05-10T11:12:37.218Z,23
2018-05-10T11:18:07.376Z,23.1
2018-05-10T11:23:37.600Z,23
2018-05-10T11:29:07.661Z,23
2018-05-10T11:34:37.696Z,23
2018-05-10T11:40:08.208Z,22.7
2018-05-10T11:45:38.839Z,22.7
2018-05-10T11:51:08.941Z,22.5
2018-05-10T11:56:39.197Z,22.2
2018-05-10T12:02:09.435Z,21.9
2018-05-10T12:07:39.759Z,21.6
2018-05-10T12:13:09.956Z,21.4
2018-05-10T12:18:40.896Z,21.3
2018-05-10T12:24:12.350Z,21.2
2018-05-10T12:29:42.173Z,21.1
2018-05-10T12:35:12.685Z,21
2018-05-10T12:40:42.573Z,20.8
2018-05-10T12:46:13.465Z,20.6
2018-05-10T12:51:43.300Z,20.1
2018-05-10T12:57:13.046Z,19.8
2018-05-10T13:02:43.066Z,19.5
2018-05-10T13:08:12.535Z,19.5
2018-05-10T13:13:42.468Z,19.4
2018-05-10T13:19:12.386Z,19.5
2018-05-10T13:24:42.772Z,19.6
2018-05-10T13:30:13.753Z,19.6
2018-05-10T13:35:44.417Z,19.7
2018-05-10T13:41:15.335Z,19.7
2018-05-10T13:46:44.892Z,19.7
2018-05-10T13:52:15.609Z,19.5
2018-05-10T13:57:45.388Z,19.4
2018-05-10T14:03:15.654Z,19.4
2018-05-10T14:08:44.818Z,19.3
2018-05-10T14:14:14.629Z,18.9
2018-05-10T14:19:45.281Z,18.5
2018-05-10T14:25:15.466Z,18.2
2018-05-10T14:30:45.485Z,17.9
2018-05-10T14:36:16.215Z,17.7
2018-05-10T14:41:45.854Z,17.5
2018-05-10T14:47:16.212Z,17.3
2018-05-10T14:52:46.677Z,17
2018-05-10T14:58:16.142Z,16.9
2018-05-10T15:14:44.475Z,16.7
2018-05-10T15:20:14.923Z,16.8
2018-05-10T15:25:45.501Z,16.9
2018-05-10T15:31:14.870Z,17
2018-05-10T15:36:44.927Z,17
2018-05-10T15:42:13.852Z,17
2018-05-10T15:47:43.375Z,16.9
2018-05-10T15:53:12.728Z,16.8
2018-05-10T15:58:42.220Z,16.7
2018-05-10T16:04:11.819Z,16.6
2018-05-10T16:09:40.958Z,16.5
2018-05-10T16:20:42.191Z,16.5
2018-05-10T16:26:12.398Z,16.5
2018-05-10T16:31:42.666Z,16.6
2018-05-10T16:37:13.489Z,16.6
2018-05-10T16:42:42.614Z,16.5
2018-05-10T16:48:12.204Z,16.4
2018-05-10T16:53:42.609Z,16.2
2018-05-10T16:59:12.812Z,15.9
2018-05-10T17:04:43.044Z,15.7
2018-05-10T17:10:13.449Z,15.5
2018-05-10T17:15:43.725Z,15.4
2018-05-10T17:21:14.094Z,15.4
2018-05-10T17:26:43.309Z,15.3
2018-05-10T17:32:13.597Z,15.3
2018-05-10T17:37:43.953Z,15.2
2018-05-10T17:43:14.223Z,15.1
2018-05-10T17:48:43.492Z,15
2018-05-10T17:54:13.688Z,14.9
2018-05-10T17:59:43.973Z,14.8
2018-05-10T18:05:13.322Z,14.7
2018-05-10T18:10:43.638Z,14.7
2018-05-10T18:16:12.676Z,14.6
2018-05-10T18:21:42.022Z,14.6
2018-05-10T18:27:12.277Z,14.5
2018-05-10T18:32:41.317Z,14.3
2018-05-10T18:38:10.505Z,14.1
2018-05-10T18:43:40.669Z,13.9
2018-05-10T18:49:10.843Z,13.8
2018-05-10T18:54:39.926Z,13.6
2018-05-10T19:00:09.081Z,13.5
2018-05-10T19:05:38.219Z,13.4
2018-05-10T19:11:09.179Z,13.5
2018-05-10T19:16:37.422Z,13.4
2018-05-10T19:22:07.608Z,13.3
2018-05-10T19:27:37.636Z,13.2
2018-05-10T19:33:06.672Z,13
2018-05-10T19:38:36.732Z,13
2018-05-10T19:44:06.863Z,13
2018-05-10T19:49:36.892Z,13
2018-05-10T19:55:06.031Z,12.9
2018-05-10T20:00:36.097Z,12.7
2018-05-10T20:06:06.122Z,12.6
2018-05-10T20:11:36.335Z,12.6
2018-05-10T20:17:05.222Z,12.5
2018-05-10T20:22:35.196Z,12.4
2018-05-10T20:28:05.294Z,12.3
2018-05-10T20:33:34.177Z,12.2
2018-05-10T20:39:04.233Z,12.2
2018-05-10T20:44:34.288Z,12.2
2018-05-10T20:55:32.354Z,12.1
2018-05-10T21:01:02.449Z,12.1
2018-05-10T21:06:32.479Z,12.1
2018-05-10T21:12:02.289Z,12.1
2018-05-10T21:17:31.082Z,12
2018-05-10T21:23:01.100Z,11.9
2018-05-10T21:28:30.084Z,11.9
2018-05-10T21:33:59.088Z,12.1
2018-05-10T21:39:29.039Z,12.3
2018-05-10T21:44:58.021Z,12.4
2018-05-10T21:50:28.081Z,12.3
2018-05-10T21:55:58.027Z,12.1
2018-05-10T22:01:28.057Z,12
2018-05-10T22:06:58.144Z,11.9
2018-05-10T22:12:28.237Z,11.9
2018-05-10T22:17:57.937Z,12
2018-05-10T22:23:26.856Z,12.1
2018-05-10T22:28:56.848Z,12
2018-05-10T22:34:25.957Z,11.9
2018-05-10T22:39:55.782Z,11.8
2018-05-10T22:45:24.712Z,11.7
2018-05-10T22:50:53.855Z,11.8
2018-05-10T22:56:22.679Z,11.9
2018-05-10T23:01:52.600Z,12
2018-05-10T23:07:21.604Z,12
2018-05-10T23:12:51.541Z,12
2018-05-10T23:18:20.576Z,12
2018-05-10T23:23:50.497Z,12
2018-05-10T23:29:19.471Z,12
2018-05-10T23:34:49.471Z,12
2018-05-10T23:40:19.416Z,11.9
2018-05-10T23:45:48.313Z,11.9
2018-05-10T23:51:17.299Z,11.8
2018-05-10T23:56:46.238Z,11.8
